sensor_id;sensor_type;location;lat;lon;timestamp;pressure;altitude;pressure_sealevel;temperature;humidity
19447;BME280;9862;49.462;11.054;2024-01-25T00:00:18;99006.06;;;9.58;100.00
19447;BME280;9862;49.462;11.054;2024-01-25T00:02:45;99010.00;;;9.62;100.00
19447;BME280;9862;49.462;11.054;2024-01-25T00:05:11;99010.78;;;9.71;100.00
19447;BME280;9862;49.462;11.054;2024-01-25T00:07:46;99019.16;;;9.83;100.00
19447;BME280;9862;49.462;11.054;2024-01-25T00:10:13;99018.81;;;9.86;100.00
19447;BME280;9862;49.462;11.054;2024-01-25T00:12:41;99012.19;;;9.82;100.00
19447;BME280;9862;49.462;11.054;2024-01-25T00:15:08;99017.88;;;9.79;100.00
19447;BME280;9862;49.462;11.054;2024-01-25T00:17:35;99010.13;;;9.69;100.00
19447;BME280;9862;49.462;11.054;2024-01-25T00:20:02;99012.19;;;9.82;100.00
19447;BME280;9862;49.462;11.054;2024-01-25T00:22:29;99004.13;;;9.90;100.00
19447;BME280;9862;49.462;11.054;2024-01-25T00:24:57;98998.69;;;9.83;100.00
19447;BME280;9862;49.462;11.054;2024-01-25T00:27:24;98992.09;;;9.79;100.00
19447;BME280;9862;49.462;11.054;2024-01-25T00:29:50;98987.31;;;9.74;100.00
19447;BME280;9862;49.462;11.054;2024-01-25T00:32:17;98989.63;;;9.78;100.00
19447;BME280;9862;49.462;11.054;2024-01-25T00:34:44;98993.44;;;9.60;100.00
19447;BME280;9862;49.462;11.054;2024-01-25T00:37:11;98982.44;;;9.63;100.00
19447;BME280;9862;49.462;11.054;2024-01-25T00:39:38;98984.63;;;9.60;100.00
19447;BME280;9862;49.462;11.054;2024-01-25T00:42:07;98990.81;;;9.52;100.00
19447;BME280;9862;49.462;11.054;2024-01-25T00:44:35;98984.69;;;9.52;100.00
19447;BME280;9862;49.462;11.054;2024-01-25T00:47:03;98984.50;;;9.53;100.00
19447;BME280;9862;49.462;11.054;2024-01-25T00:49:30;98981.75;;;9.46;100.00
19447;BME280;9862;49.462;11.054;2024-01-25T00:51:59;98996.63;;;9.56;100.00
19447;BME280;9862;49.462;11.054;2024-01-25T00:54:26;98986.47;;;9.59;100.00
19447;BME280;9862;49.462;11.054;2024-01-25T00:56:53;98965.19;;;9.59;100.00
19447;BME280;9862;49.462;11.054;2024-01-25T00:59:22;98977.31;;;9.39;100.00
19447;BME280;9862;49.462;11.054;2024-01-25T01:01:52;98968.94;;;9.50;100.00
19447;BME280;9862;49.462;11.054;2024-01-25T01:04:20;98968.03;;;9.58;100.00
19447;BME280;9862;49.462;11.054;2024-01-25T01:06:47;98967.22;;;9.57;100.00
19447;BME280;9862;49.462;11.054;2024-01-25T01:09:14;98970.19;;;9.39;100.00
19447;BME280;9862;49.462;11.054;2024-01-25T01:11:41;98966.53;;;9.55;100.00
19447;BME280;9862;49.462;11.054;2024-01-25T01:14:07;98957.16;;;9.44;100.00
19447;BME280;9862;49.462;11.054;2024-01-25T01:16:35;98965.56;;;9.56;100.00
19447;BME280;9862;49.462;11.054;2024-01-25T01:19:02;98954.94;;;9.56;100.00
19447;BME280;9862;49.462;11.054;2024-01-25T01:21:32;98953.00;;;9.65;100.00
19447;BME280;9862;49.462;11.054;2024-01-25T01:23:59;98971.03;;;9.55;100.00
19447;BME280;9862;49.462;11.054;2024-01-25T01:26:26;98970.53;;;9.59;100.00
19447;BME280;9862;49.462;11.054;2024-01-25T01:28:53;98970.22;;;9.54;100.00
19447;BME280;9862;49.462;11.054;2024-01-25T01:31:19;98971.09;;;9.69;100.00
19447;BME280;9862;49.462;11.054;2024-01-25T01:33:47;98979.06;;;9.69;100.00
19447;BME280;9862;49.462;11.054;2024-01-25T01:36:14;98972.38;;;9.73;100.00
19447;BME280;9862;49.462;11.054;2024-01-25T01:38:41;98975.94;;;9.66;100.00
19447;BME280;9862;49.462;11.054;2024-01-25T01:41:09;98978.44;;;9.67;100.00
19447;BME280;9862;49.462;11.054;2024-01-25T01:43:36;98973.00;;;9.61;100.00
19447;BME280;9862;49.462;11.054;2024-01-25T01:46:06;98970.34;;;9.61;100.00
19447;BME280;9862;49.462;11.054;2024-01-25T01:48:35;98971.47;;;9.66;100.00
19447;BME280;9862;49.462;11.054;2024-01-25T01:51:04;98968.97;;;9.65;100.00
19447;BME280;9862;49.462;11.054;2024-01-25T01:53:31;98963.19;;;9.61;100.00
19447;BME280;9862;49.462;11.054;2024-01-25T01:55:59;98969.63;;;9.67;100.00
19447;BME280;9862;49.462;11.054;2024-01-25T01:58:26;98956.78;;;9.70;100.00
19447;BME280;9862;49.462;11.054;2024-01-25T02:00:55;98965.19;;;9.59;100.00
19447;BME280;9862;49.462;11.054;2024-01-25T02:03:22;98961.59;;;9.52;100.00
19447;BME280;9862;49.462;11.054;2024-01-25T02:05:48;98962.72;;;9.58;100.00
19447;BME280;9862;49.462;11.054;2024-01-25T02:08:16;98961.19;;;9.40;100.00
19447;BME280;9862;49.462;11.054;2024-01-25T02:10:43;98966.28;;;9.50;100.00
19447;BME280;9862;49.462;11.054;2024-01-25T02:13:10;98957.47;;;9.50;100.00
19447;BME280;9862;49.462;11.054;2024-01-25T02:15:36;98954.50;;;9.44;100.00
19447;BME280;9862;49.462;11.054;2024-01-25T02:18:03;98959.69;;;9.46;100.00
19447;BME280;9862;49.462;11.054;2024-01-25T02:20:31;98956.72;;;9.41;100.00
19447;BME280;9862;49.462;11.054;2024-01-25T02:22:58;98955.94;;;9.32;100.00
19447;BME280;9862;49.462;11.054;2024-01-25T02:25:25;98955.72;;;9.42;100.00
19447;BME280;9862;49.462;11.054;2024-01-25T02:27:52;98964.63;;;9.49;100.00
19447;BME280;9862;49.462;11.054;2024-01-25T02:30:18;98966.06;;;9.37;100.00
19447;BME280;9862;49.462;11.054;2024-01-25T02:32:45;98962.97;;;9.25;100.00
19447;BME280;9862;49.462;11.054;2024-01-25T02:35:12;98959.78;;;9.30;100.00
19447;BME280;9862;49.462;11.054;2024-01-25T02:37:38;98972.06;;;9.31;100.00
19447;BME280;9862;49.462;11.054;2024-01-25T02:40:07;98973.94;;;9.45;100.00
19447;BME280;9862;49.462;11.054;2024-01-25T02:42:34;98972.59;;;9.49;100.00
19447;BME280;9862;49.462;11.054;2024-01-25T02:45:01;98976.53;;;9.53;100.00
19447;BME280;9862;49.462;11.054;2024-01-25T02:47:28;98978.91;;;9.48;100.00
19447;BME280;9862;49.462;11.054;2024-01-25T02:49:54;98982.66;;;9.54;100.00
19447;BME280;9862;49.462;11.054;2024-01-25T02:52:21;98988.13;;;9.60;100.00
19447;BME280;9862;49.462;11.054;2024-01-25T02:54:47;98986.91;;;9.63;100.00
19447;BME280;9862;49.462;11.054;2024-01-25T02:57:16;98979.25;;;9.68;100.00
19447;BME280;9862;49.462;11.054;2024-01-25T02:59:43;98983.50;;;9.54;100.00
19447;BME280;9862;49.462;11.054;2024-01-25T03:02:10;98992.03;;;9.50;100.00
19447;BME280;9862;49.462;11.054;2024-01-25T03:04:36;98994.03;;;9.48;100.00
19447;BME280;9862;49.462;11.054;2024-01-25T03:07:03;98990.56;;;9.47;100.00
19447;BME280;9862;49.462;11.054;2024-01-25T03:09:31;98995.91;;;9.39;100.00
19447;BME280;9862;49.462;11.054;2024-01-25T03:11:58;98990.81;;;9.52;100.00
19447;BME280;9862;49.462;11.054;2024-01-25T03:14:28;98993.44;;;9.60;100.00
19447;BME280;9862;49.462;11.054;2024-01-25T03:16:56;98989.53;;;9.48;100.00
19447;BME280;9862;49.462;11.054;2024-01-25T03:19:28;98995.78;;;9.55;100.00
19447;BME280;9862;49.462;11.054;2024-01-25T03:21:56;98991.78;;;9.59;100.00
19447;BME280;9862;49.462;11.054;2024-01-25T03:24:29;99010.66;;;9.64;100.00
19447;BME280;9862;49.462;11.054;2024-01-25T03:27:00;98996.91;;;9.61;100.00
19447;BME280;9862;49.462;11.054;2024-01-25T03:29:28;98998.03;;;9.66;100.00
19447;BME280;9862;49.462;11.054;2024-01-25T03:31:56;99007.66;;;9.67;100.00
19447;BME280;9862;49.462;11.054;2024-01-25T03:34:23;99017.28;;;9.68;100.00
19447;BME280;9862;49.462;11.054;2024-01-25T03:36:49;99011.59;;;9.71;100.00
19447;BME280;9862;49.462;11.054;2024-01-25T03:39:18;99009.94;;;9.70;100.00
19447;BME280;9862;49.462;11.054;2024-01-25T03:41:45;99019.81;;;9.62;100.00
19447;BME280;9862;49.462;11.054;2024-01-25T03:44:12;99024.13;;;9.63;100.00
19447;BME280;9862;49.462;11.054;2024-01-25T03:46:40;99022.06;;;9.50;100.00
19447;BME280;9862;49.462;11.054;2024-01-25T03:49:06;99016.44;;;9.45;100.00
19447;BME280;9862;49.462;11.054;2024-01-25T03:51:33;99020.47;;;9.41;100.00
19447;BME280;9862;49.462;11.054;2024-01-25T03:54:00;99017.44;;;9.44;100.00
19447;BME280;9862;49.462;11.054;2024-01-25T03:56:26;99021.75;;;9.45;100.00
19447;BME280;9862;49.462;11.054;2024-01-25T03:58:53;99025.44;;;9.44;100.00
19447;BME280;9862;49.462;11.054;2024-01-25T04:01:19;99020.06;;;9.52;100.00
19447;BME280;9862;49.462;11.054;2024-01-25T04:03:47;99018.28;;;9.44;100.00
19447;BME280;9862;49.462;11.054;2024-01-25T04:06:14;99024.00;;;9.33;100.00
19447;BME280;9862;49.462;11.054;2024-01-25T04:08:41;99030.25;;;9.17;100.00
19447;BME280;9862;49.462;11.054;2024-01-25T04:11:07;99035.50;;;9.26;100.00
19447;BME280;9862;49.462;11.054;2024-01-25T04:13:34;99027.22;;;9.29;100.00
19447;BME280;9862;49.462;11.054;2024-01-25T04:16:01;99027.31;;;9.35;100.00
19447;BME280;9862;49.462;11.054;2024-01-25T04:18:27;99021.16;;;9.35;100.00
19447;BME280;9862;49.462;11.054;2024-01-25T04:20:55;99023.22;;;9.25;100.00
19447;BME280;9862;49.462;11.054;2024-01-25T04:23:22;99035.22;;;9.21;100.00
19447;BME280;9862;49.462;11.054;2024-01-25T04:25:49;99023.41;;;9.23;100.00
19447;BME280;9862;49.462;11.054;2024-01-25T04:28:15;99027.22;;;9.29;100.00
19447;BME280;9862;49.462;11.054;2024-01-25T04:30:42;99033.53;;;9.28;100.00
19447;BME280;9862;49.462;11.054;2024-01-25T04:33:08;99023.50;;;9.38;100.00
19447;BME280;9862;49.462;11.054;2024-01-25T04:35:36;99025.19;;;9.31;100.00
19447;BME280;9862;49.462;11.054;2024-01-25T04:38:04;99028.13;;;9.36;100.00
19447;BME280;9862;49.462;11.054;2024-01-25T04:40:31;99023.19;;;9.33;100.00
19447;BME280;9862;49.462;11.054;2024-01-25T04:42:57;99027.91;;;9.23;100.00
19447;BME280;9862;49.462;11.054;2024-01-25T04:45:24;99032.56;;;9.21;100.00
19447;BME280;9862;49.462;11.054;2024-01-25T04:47:51;99035.63;;;9.32;100.00
19447;BME280;9862;49.462;11.054;2024-01-25T04:50:18;99042.41;;;9.35;100.00
19447;BME280;9862;49.462;11.054;2024-01-25T04:52:44;99038.97;;;9.26;100.00
19447;BME280;9862;49.462;11.054;2024-01-25T04:55:12;99050.16;;;9.22;100.00
19447;BME280;9862;49.462;11.054;2024-01-25T04:57:39;99052.94;;;9.28;100.00
19447;BME280;9862;49.462;11.054;2024-01-25T05:00:08;99057.47;;;9.20;100.00
19447;BME280;9862;49.462;11.054;2024-01-25T05:02:34;99064.22;;;9.30;100.00
19447;BME280;9862;49.462;11.054;2024-01-25T05:05:01;99070.25;;;9.47;100.00
19447;BME280;9862;49.462;11.054;2024-01-25T05:07:28;99077.56;;;9.45;100.00
19447;BME280;9862;49.462;11.054;2024-01-25T05:09:54;99069.59;;;9.45;100.00
19447;BME280;9862;49.462;11.054;2024-01-25T05:12:22;99082.59;;;9.40;100.00
19447;BME280;9862;49.462;11.054;2024-01-25T05:14:49;99088.25;;;9.37;100.00
19447;BME280;9862;49.462;11.054;2024-01-25T05:17:16;99089.59;;;9.33;100.00
19447;BME280;9862;49.462;11.054;2024-01-25T05:19:42;99098.38;;;9.33;100.00
19447;BME280;9862;49.462;11.054;2024-01-25T05:22:09;99096.69;;;9.40;100.00
19447;BME280;9862;49.462;11.054;2024-01-25T05:24:36;99097.84;;;9.46;100.00
19447;BME280;9862;49.462;11.054;2024-01-25T05:27:02;99098.72;;;9.38;100.00
19447;BME280;9862;49.462;11.054;2024-01-25T05:29:30;99110.13;;;9.47;100.00
19447;BME280;9862;49.462;11.054;2024-01-25T05:31:57;99104.81;;;9.47;100.00
19447;BME280;9862;49.462;11.054;2024-01-25T05:34:24;99107.09;;;9.50;100.00
19447;BME280;9862;49.462;11.054;2024-01-25T05:36:51;99113.94;;;9.44;100.00
19447;BME280;9862;49.462;11.054;2024-01-25T05:39:18;99115.53;;;9.23;100.00
19447;BME280;9862;49.462;11.054;2024-01-25T05:41:44;99128.81;;;9.23;100.00
19447;BME280;9862;49.462;11.054;2024-01-25T05:44:12;99119.22;;;9.13;100.00
19447;BME280;9862;49.462;11.054;2024-01-25T05:46:40;99112.13;;;9.06;100.00
19447;BME280;9862;49.462;11.054;2024-01-25T05:49:06;99109.63;;;9.04;100.00
19447;BME280;9862;49.462;11.054;2024-01-25T05:51:33;99104.34;;;9.04;100.00
19447;BME280;9862;49.462;11.054;2024-01-25T05:54:00;99132.84;;;9.18;100.00
19447;BME280;9862;49.462;11.054;2024-01-25T05:56:26;99146.72;;;9.29;100.00
19447;BME280;9862;49.462;11.054;2024-01-25T05:58:53;99148.34;;;9.38;100.00
19447;BME280;9862;49.462;11.054;2024-01-25T06:01:20;99139.56;;;9.37;100.00
19447;BME280;9862;49.462;11.054;2024-01-25T06:03:47;99137.16;;;9.20;100.00
19447;BME280;9862;49.462;11.054;2024-01-25T06:06:14;99131.50;;;9.14;100.00
19447;BME280;9862;49.462;11.054;2024-01-25T06:08:41;99143.09;;;9.22;100.00
19447;BME280;9862;49.462;11.054;2024-01-25T06:11:07;99147.38;;;9.31;100.00
19447;BME280;9862;49.462;11.054;2024-01-25T06:13:36;99149.38;;;9.29;100.00
19447;BME280;9862;49.462;11.054;2024-01-25T06:16:03;99144.59;;;9.16;100.00
19447;BME280;9862;49.462;11.054;2024-01-25T06:18:30;99161.25;;;9.10;100.00
19447;BME280;9862;49.462;11.054;2024-01-25T06:20:58;99160.63;;;9.00;100.00
19447;BME280;9862;49.462;11.054;2024-01-25T06:23:24;99164.75;;;9.02;100.00
19447;BME280;9862;49.462;11.054;2024-01-25T06:25:51;99167.06;;;9.05;100.00
19447;BME280;9862;49.462;11.054;2024-01-25T06:28:18;99164.06;;;9.08;100.00
19447;BME280;9862;49.462;11.054;2024-01-25T06:30:44;99168.06;;;9.04;100.00
19447;BME280;9862;49.462;11.054;2024-01-25T06:33:11;99169.59;;;8.91;100.00
19447;BME280;9862;49.462;11.054;2024-01-25T06:35:38;99176.38;;;8.93;100.00
19447;BME280;9862;49.462;11.054;2024-01-25T06:38:06;99170.22;;;9.09;100.00
19447;BME280;9862;49.462;11.054;2024-01-25T06:40:33;99165.84;;;9.16;100.00
19447;BME280;9862;49.462;11.054;2024-01-25T06:43:00;99164.56;;;9.12;100.00
19447;BME280;9862;49.462;11.054;2024-01-25T06:45:26;99158.69;;;9.25;100.00
19447;BME280;9862;49.462;11.054;2024-01-25T06:47:53;99160.31;;;8.86;100.00
19447;BME280;9862;49.462;11.054;2024-01-25T06:50:19;99163.47;;;8.82;100.00
19447;BME280;9862;49.462;11.054;2024-01-25T06:52:46;99170.28;;;8.68;100.00
19447;BME280;9862;49.462;11.054;2024-01-25T06:55:14;99174.94;;;8.66;100.00
19447;BME280;9862;49.462;11.054;2024-01-25T06:57:41;99171.09;;;8.77;100.00
19447;BME280;9862;49.462;11.054;2024-01-25T07:00:08;99167.63;;;8.76;100.00
19447;BME280;9862;49.462;11.054;2024-01-25T07:02:38;99174.91;;;8.82;100.00
19447;BME280;9862;49.462;11.054;2024-01-25T07:05:05;99176.78;;;8.57;100.00
19447;BME280;9862;49.462;11.054;2024-01-25T07:07:32;99185.38;;;8.68;100.00
19447;BME280;9862;49.462;11.054;2024-01-25T07:09:58;99191.03;;;8.65;100.00
19447;BME280;9862;49.462;11.054;2024-01-25T07:12:26;99193.69;;;8.56;100.00
19447;BME280;9862;49.462;11.054;2024-01-25T07:14:53;99198.69;;;8.51;100.00
19447;BME280;9862;49.462;11.054;2024-01-25T07:17:20;99192.22;;;8.54;100.00
19447;BME280;9862;49.462;11.054;2024-01-25T07:19:46;99201.34;;;8.43;100.00
19447;BME280;9862;49.462;11.054;2024-01-25T07:22:13;99199.28;;;8.29;100.00
19447;BME280;9862;49.462;11.054;2024-01-25T07:24:40;99198.34;;;8.38;100.00
19447;BME280;9862;49.462;11.054;2024-01-25T07:27:07;99195.03;;;8.36;100.00
19447;BME280;9862;49.462;11.054;2024-01-25T07:29:36;99202.34;;;8.50;100.00
19447;BME280;9862;49.462;11.054;2024-01-25T07:32:03;99204.31;;;8.48;100.00
19447;BME280;9862;49.462;11.054;2024-01-25T07:34:30;99213.59;;;8.52;100.00
19447;BME280;9862;49.462;11.054;2024-01-25T07:36:57;99228.19;;;8.56;100.00
19447;BME280;9862;49.462;11.054;2024-01-25T07:39:24;99222.72;;;8.58;100.00
19447;BME280;9862;49.462;11.054;2024-01-25T07:41:51;99223.53;;;8.58;100.00
19447;BME280;9862;49.462;11.054;2024-01-25T07:44:17;99231.84;;;8.55;100.00
19447;BME280;9862;49.462;11.054;2024-01-25T07:46:46;99230.50;;;8.43;100.00
19447;BME280;9862;49.462;11.054;2024-01-25T07:49:13;99229.19;;;8.47;100.00
19447;BME280;9862;49.462;11.054;2024-01-25T07:51:40;99234.47;;;8.31;100.00
19447;BME280;9862;49.462;11.054;2024-01-25T07:54:06;99230.16;;;8.30;100.00
19447;BME280;9862;49.462;11.054;2024-01-25T07:56:33;99231.81;;;8.31;100.00
19447;BME280;9862;49.462;11.054;2024-01-25T07:59:00;99236.97;;;8.41;100.00
19447;BME280;9862;49.462;11.054;2024-01-25T08:01:26;99231.78;;;8.23;100.00
19447;BME280;9862;49.462;11.054;2024-01-25T08:03:54;99228.63;;;8.27;100.00
19447;BME280;9862;49.462;11.054;2024-01-25T08:06:21;99231.81;;;8.39;100.00
19447;BME280;9862;49.462;11.054;2024-01-25T08:08:48;99242.22;;;8.16;100.00
19447;BME280;9862;49.462;11.054;2024-01-25T08:11:15;99239.91;;;8.13;100.00
19447;BME280;9862;49.462;11.054;2024-01-25T08:13:44;99230.44;;;8.02;100.00
19447;BME280;9862;49.462;11.054;2024-01-25T08:16:11;99220.00;;;8.17;100.00
19447;BME280;9862;49.462;11.054;2024-01-25T08:18:39;99218.84;;;8.03;100.00
19447;BME280;9862;49.462;11.054;2024-01-25T08:21:07;99221.50;;;8.03;100.00
19447;BME280;9862;49.462;11.054;2024-01-25T08:23:33;99225.81;;;8.13;100.00
19447;BME280;9862;49.462;11.054;2024-01-25T08:26:00;99231.47;;;8.26;100.00
19447;BME280;9862;49.462;11.054;2024-01-25T08:28:27;99229.16;;;8.31;100.00
19447;BME280;9862;49.462;11.054;2024-01-25T08:30:53;99241.06;;;8.27;100.00
19447;BME280;9862;49.462;11.054;2024-01-25T08:33:20;99237.47;;;8.44;100.00
19447;BME280;9862;49.462;11.054;2024-01-25T08:35:46;99245.25;;;8.38;100.00
19447;BME280;9862;49.462;11.054;2024-01-25T08:38:14;99250.75;;;8.44;100.00
19447;BME280;9862;49.462;11.054;2024-01-25T08:40:41;99246.09;;;8.46;100.00
19447;BME280;9862;49.462;11.054;2024-01-25T08:43:08;99247.09;;;8.45;100.00
19447;BME280;9862;49.462;11.054;2024-01-25T08:45:34;99248.19;;;8.26;100.00
19447;BME280;9862;49.462;11.054;2024-01-25T08:48:02;99245.91;;;8.31;100.00
19447;BME280;9862;49.462;11.054;2024-01-25T08:50:29;99260.03;;;8.56;100.00
19447;BME280;9862;49.462;11.054;2024-01-25T08:52:56;99269.66;;;8.66;100.00
19447;BME280;9862;49.462;11.054;2024-01-25T08:55:24;99265.97;;;8.58;100.00
19447;BME280;9862;49.462;11.054;2024-01-25T08:57:50;99259.53;;;8.69;100.00
19447;BME280;9862;49.462;11.054;2024-01-25T09:00:17;99274.13;;;8.65;100.00
19447;BME280;9862;49.462;11.054;2024-01-25T09:02:44;99281.59;;;8.70;100.00
19447;BME280;9862;49.462;11.054;2024-01-25T09:05:11;99273.94;;;8.67;100.00
19447;BME280;9862;49.462;11.054;2024-01-25T09:07:37;99266.16;;;8.89;100.00
19447;BME280;9862;49.462;11.054;2024-01-25T09:10:05;99275.78;;;8.99;100.00
19447;BME280;9862;49.462;11.054;2024-01-25T09:12:34;99277.28;;;8.85;100.00
19447;BME280;9862;49.462;11.054;2024-01-25T09:15:00;99277.63;;;8.98;100.00
19447;BME280;9862;49.462;11.054;2024-01-25T09:17:28;99276.75;;;9.06;100.00
19447;BME280;9862;49.462;11.054;2024-01-25T09:19:54;99281.41;;;8.96;100.00
19447;BME280;9862;49.462;11.054;2024-01-25T09:22:24;99273.94;;;9.07;100.00
19447;BME280;9862;49.462;11.054;2024-01-25T09:24:50;99270.59;;;9.13;100.00
19447;BME280;9862;49.462;11.054;2024-01-25T09:27:17;99272.13;;;9.08;100.00
19447;BME280;9862;49.462;11.054;2024-01-25T09:29:45;99273.59;;;9.10;100.00
19447;BME280;9862;49.462;11.054;2024-01-25T09:32:12;99277.75;;;9.05;100.00
19447;BME280;9862;49.462;11.054;2024-01-25T09:34:39;99279.94;;;8.93;100.00
19447;BME280;9862;49.462;11.054;2024-01-25T09:37:05;99285.22;;;9.09;100.00
19447;BME280;9862;49.462;11.054;2024-01-25T09:39:32;99286.19;;;9.16;100.00
19447;BME280;9862;49.462;11.054;2024-01-25T09:42:00;99291.84;;;8.97;100.00
19447;BME280;9862;49.462;11.054;2024-01-25T09:44:28;99298.34;;;9.03;100.00
19447;BME280;9862;49.462;11.054;2024-01-25T09:46:56;99287.53;;;9.12;100.00
19447;BME280;9862;49.462;11.054;2024-01-25T09:49:23;99280.22;;;9.14;100.00
19447;BME280;9862;49.462;11.054;2024-01-25T09:51:51;99295.84;;;9.17;100.00
19447;BME280;9862;49.462;11.054;2024-01-25T09:54:18;99305.00;;;8.91;100.00
19447;BME280;9862;49.462;11.054;2024-01-25T09:56:45;99296.16;;;9.14;100.00
19447;BME280;9862;49.462;11.054;2024-01-25T09:59:13;99306.78;;;9.31;100.00
19447;BME280;9862;49.462;11.054;2024-01-25T10:01:40;99295.34;;;9.14;100.00
19447;BME280;9862;49.462;11.054;2024-01-25T10:04:08;99306.44;;;9.26;100.00
19447;BME280;9862;49.462;11.054;2024-01-25T10:06:34;99317.56;;;9.21;100.00
19447;BME280;9862;49.462;11.054;2024-01-25T10:09:01;99319.06;;;9.32;100.00
19447;BME280;9862;49.462;11.054;2024-01-25T10:11:29;99313.06;;;9.46;100.00
19447;BME280;9862;49.462;11.054;2024-01-25T10:14:01;99310.69;;;9.59;100.00
19447;BME280;9862;49.462;11.054;2024-01-25T10:16:29;99307.19;;;9.59;100.00
19447;BME280;9862;49.462;11.054;2024-01-25T10:18:56;99308.31;;;9.72;100.00
19447;BME280;9862;49.462;11.054;2024-01-25T10:21:24;99301.38;;;9.63;100.00
19447;BME280;9862;49.462;11.054;2024-01-25T10:23:52;99304.75;;;9.41;100.00
19447;BME280;9862;49.462;11.054;2024-01-25T10:26:20;99303.94;;;9.32;100.00
19447;BME280;9862;49.462;11.054;2024-01-25T10:28:51;99332.63;;;9.45;100.00
19447;BME280;9862;49.462;11.054;2024-01-25T10:31:18;99302.75;;;9.43;100.00
19447;BME280;9862;49.462;11.054;2024-01-25T10:33:45;99320.84;;;9.56;100.00
19447;BME280;9862;49.462;11.054;2024-01-25T10:36:13;99303.72;;;9.58;100.00
19447;BME280;9862;49.462;11.054;2024-01-25T10:38:42;99297.03;;;9.70;100.00
19447;BME280;9862;49.462;11.054;2024-01-25T10:41:12;99305.66;;;9.72;100.00
19447;BME280;9862;49.462;11.054;2024-01-25T10:43:40;99301.50;;;9.78;100.00
19447;BME280;9862;49.462;11.054;2024-01-25T10:46:07;99297.22;;;9.61;100.00
19447;BME280;9862;49.462;11.054;2024-01-25T10:48:34;99302.44;;;9.46;100.00
19447;BME280;9862;49.462;11.054;2024-01-25T10:51:01;99308.66;;;9.69;100.00
19447;BME280;9862;49.462;11.054;2024-01-25T10:53:30;99306.97;;;9.77;100.00
19447;BME280;9862;49.462;11.054;2024-01-25T10:55:59;99291.41;;;9.65;100.00
19447;BME280;9862;49.462;11.054;2024-01-25T10:58:30;99290.00;;;9.86;100.00
19447;BME280;9862;49.462;11.054;2024-01-25T11:00:56;99283.06;;;9.77;100.00
19447;BME280;9862;49.462;11.054;2024-01-25T11:03:26;99291.03;;;9.77;100.00
19447;BME280;9862;49.462;11.054;2024-01-25T11:05:55;99278.41;;;9.70;100.00
19447;BME280;9862;49.462;11.054;2024-01-25T11:08:24;99278.81;;;9.90;100.00
19447;BME280;9862;49.462;11.054;2024-01-25T11:10:50;99268.16;;;9.98;100.00
19447;BME280;9862;49.462;11.054;2024-01-25T11:13:23;99281.19;;;10.16;100.00
19447;BME280;9862;49.462;11.054;2024-01-25T11:15:51;99259.91;;;10.16;100.00
19447;BME280;9862;49.462;11.054;2024-01-25T11:18:18;99266.66;;;10.04;100.00
19447;BME280;9862;49.462;11.054;2024-01-25T11:20:47;99272.50;;;9.91;100.00
19447;BME280;9862;49.462;11.054;2024-01-25T11:23:15;99267.13;;;9.68;100.00
19447;BME280;9862;49.462;11.054;2024-01-25T11:25:44;99274.09;;;9.69;100.00
19447;BME280;9862;49.462;11.054;2024-01-25T11:28:13;99263.63;;;9.76;100.00
19447;BME280;9862;49.462;11.054;2024-01-25T11:30:42;99266.94;;;9.78;100.00
19447;BME280;9862;49.462;11.054;2024-01-25T11:33:09;99269.75;;;9.77;100.00
19447;BME280;9862;49.462;11.054;2024-01-25T11:35:37;99275.41;;;9.73;100.00
19447;BME280;9862;49.462;11.054;2024-01-25T11:38:04;99278.38;;;9.87;100.00
19447;BME280;9862;49.462;11.054;2024-01-25T11:40:30;99279.63;;;9.99;100.00
19447;BME280;9862;49.462;11.054;2024-01-25T11:42:57;99283.72;;;9.79;100.00
19447;BME280;9862;49.462;11.054;2024-01-25T11:45:24;99285.13;;;9.58;100.00
19447;BME280;9862;49.462;11.054;2024-01-25T11:47:53;99285.75;;;9.68;100.00
19447;BME280;9862;49.462;11.054;2024-01-25T11:50:19;99291.78;;;9.93;100.00
19447;BME280;9862;49.462;11.054;2024-01-25T11:52:48;99284.69;;;9.86;100.00
19447;BME280;9862;49.462;11.054;2024-01-25T11:55:15;99291.25;;;9.98;100.00
19447;BME280;9862;49.462;11.054;2024-01-25T11:57:42;99287.75;;;10.06;100.00
19447;BME280;9862;49.462;11.054;2024-01-25T12:00:10;99294.00;;;9.82;100.00
19447;BME280;9862;49.462;11.054;2024-01-25T12:02:39;99271.09;;;9.72;100.00
19447;BME280;9862;49.462;11.054;2024-01-25T12:05:09;99279.81;;;9.58;100.00
19447;BME280;9862;49.462;11.054;2024-01-25T12:07:39;99280.44;;;9.60;100.00
19447;BME280;9862;49.462;11.054;2024-01-25T12:10:07;99287.56;;;9.68;100.00
19447;BME280;9862;49.462;11.054;2024-01-25T12:12:35;99279.81;;;9.50;100.00
19447;BME280;9862;49.462;11.054;2024-01-25T12:15:04;99284.16;;;9.43;100.00
19447;BME280;9862;49.462;11.054;2024-01-25T12:17:32;99285.31;;;9.49;100.00
19447;BME280;9862;49.462;11.054;2024-01-25T12:19:59;99286.78;;;9.51;100.00
19447;BME280;9862;49.462;11.054;2024-01-25T12:22:28;99283.78;;;9.54;100.00
19447;BME280;9862;49.462;11.054;2024-01-25T12:24:57;99279.16;;;9.56;100.00
19447;BME280;9862;49.462;11.054;2024-01-25T12:27:25;99287.25;;;9.55;100.00
19447;BME280;9862;49.462;11.054;2024-01-25T12:29:53;99280.59;;;9.67;100.00
19447;BME280;9862;49.462;11.054;2024-01-25T12:32:20;99277.91;;;9.75;100.00
19447;BME280;9862;49.462;11.054;2024-01-25T12:34:53;99291.16;;;9.83;100.00
19447;BME280;9862;49.462;11.054;2024-01-25T12:37:21;99272.72;;;9.82;100.00
19447;BME280;9862;49.462;11.054;2024-01-25T12:39:49;99277.34;;;9.88;100.00
19447;BME280;9862;49.462;11.054;2024-01-25T12:42:16;99287.63;;;9.91;100.00
19447;BME280;9862;49.462;11.054;2024-01-25T12:44:43;99266.72;;;9.88;100.00
19447;BME280;9862;49.462;11.054;2024-01-25T12:47:11;99277.06;;;9.74;100.00
19447;BME280;9862;49.462;11.054;2024-01-25T12:49:39;99271.06;;;9.81;100.00
19447;BME280;9862;49.462;11.054;2024-01-25T12:52:07;99279.38;;;9.86;100.00
19447;BME280;9862;49.462;11.054;2024-01-25T12:54:33;99271.88;;;9.81;100.00
19447;BME280;9862;49.462;11.054;2024-01-25T12:57:02;99261.47;;;9.71;100.00
19447;BME280;9862;49.462;11.054;2024-01-25T12:59:28;99264.84;;;9.65;100.00